Time;durP1;ratioP1;P1;durP2;ratioP2;P2;SDS_P1;SDS_P2;PMS_P1;PMS_P2;Temp;Humidity;BMP_temperature;BMP_pressure;BME280_temperature;BME280_humidity;BME280_pressure;Samples;Min_cycle;Max_cycle;Signal;HPM_P1;HPM_P2
2022/04/20 00:02:07;;;;;;;3.45;2.42;;;;;;;12.27;36.57;100025.28;10243883;28;20054;-64
2022/04/20 00:07:10;;;;;;;3.78;2.20;;;;;;;12.24;36.89;100031.72;10247109;28;20157;-66
2022/04/20 00:12:11;;;;;;;4.97;2.63;;;;;;;12.08;36.55;100020.75;10248681;28;20106;-64
2022/04/20 00:17:12;;;;;;;3.13;2.58;;;;;;;12.00;36.99;100024.94;10242503;28;20050;-65
2022/04/20 00:22:14;;;;;;;5.25;3.45;;;;;;;11.98;37.03;100026.91;10243064;28;20087;-65
2022/04/20 00:27:15;;;;;;;4.95;3.03;;;;;;;11.84;36.86;100014.81;10247673;28;20049;-64
2022/04/20 00:32:16;;;;;;;4.60;3.05;;;;;;;11.88;37.09;100035.88;10242171;28;20059;-65
2022/04/20 00:37:18;;;;;;;3.97;3.30;;;;;;;11.82;37.24;100037.25;10239550;28;20110;-65
2022/04/20 00:42:22;;;;;;;4.32;2.97;;;;;;;11.80;37.37;100049.84;10235878;28;20057;-64
2022/04/20 00:47:24;;;;;;;3.65;2.88;;;;;;;11.74;38.19;100039.75;10238208;28;20560;-65
2022/04/20 00:52:26;;;;;;;3.42;3.00;;;;;;;11.68;38.27;100041.97;10236333;28;20583;-65
2022/04/20 00:57:47;;;;;;;4.20;2.55;;;;;;;11.54;37.66;100026.34;10231916;28;20108;-64
2022/04/20 01:02:48;;;;;;;6.75;3.35;;;;;;;11.60;38.12;100052.47;10234742;28;20660;-66
2022/04/20 01:07:50;;;;;;;3.40;2.75;;;;;;;11.48;38.05;100043.75;10238474;28;20574;-64
2022/04/20 01:12:52;;;;;;;6.47;2.85;;;;;;;11.38;38.25;100031.34;10244684;28;20141;-64
2022/04/20 01:17:53;;;;;;;3.50;3.20;;;;;;;11.41;38.75;100036.41;10235883;28;20640;-64
2022/04/20 01:22:54;;;;;;;4.50;4.07;;;;;;;11.37;38.38;100043.00;10244000;28;20055;-65
2022/04/20 01:27:56;;;;;;;5.53;3.97;;;;;;;11.25;38.32;100037.75;10242050;28;20494;-64
2022/04/20 01:32:58;;;;;;;7.97;4.32;;;;;;;11.19;39.12;100034.78;10243665;28;20437;-65
2022/04/20 01:37:59;;;;;;;5.85;4.45;;;;;;;11.21;38.97;100033.66;10243932;28;20126;-64
2022/04/20 01:43:01;;;;;;;5.10;4.55;;;;;;;11.11;39.19;100022.13;10245152;28;20126;-65
2022/04/20 01:48:02;;;;;;;7.63;4.38;;;;;;;11.09;38.72;100030.25;10247755;28;20581;-65
2022/04/20 01:53:04;;;;;;;6.10;3.85;;;;;;;11.03;39.11;100032.59;10242831;28;20146;-68
2022/04/20 01:58:05;;;;;;;7.38;4.60;;;;;;;10.99;39.69;100024.03;10252666;28;20513;-67
2022/04/20 02:03:07;;;;;;;9.23;6.55;;;;;;;11.02;39.38;100034.41;10244330;28;20153;-64
2022/04/20 02:08:08;;;;;;;7.20;4.40;;;;;;;10.96;39.73;100026.97;10238725;28;20150;-64
2022/04/20 02:13:09;;;;;;;4.65;2.97;;;;;;;10.78;39.34;100021.38;10238662;28;20077;-64
2022/04/20 02:18:11;;;;;;;4.57;3.33;;;;;;;10.76;39.66;100021.50;10247507;28;20065;-66
2022/04/20 02:23:12;;;;;;;5.38;2.75;;;;;;;10.77;40.18;100035.66;10254844;28;20073;-64
2022/04/20 02:28:13;;;;;;;5.55;3.42;;;;;;;10.66;40.37;100027.72;10253518;28;20545;-66
2022/04/20 02:33:15;;;;;;;2.78;2.50;;;;;;;10.66;40.10;100030.38;10254438;28;20115;-65
2022/04/20 02:38:17;;;;;;;2.85;2.55;;;;;;;10.61;40.21;100026.31;10249165;28;20149;-65
2022/04/20 02:43:18;;;;;;;3.78;2.47;;;;;;;10.49;40.44;100034.47;10246126;28;20502;-64
2022/04/20 02:48:20;;;;;;;4.18;2.05;;;;;;;10.47;40.17;100055.06;10250770;28;20082;-69
2022/04/20 02:53:21;;;;;;;4.07;2.42;;;;;;;10.25;41.33;100035.50;10246073;28;20138;-65
2022/04/20 02:58:23;;;;;;;2.33;2.13;;;;;;;10.33;41.10;100043.75;10252981;28;20603;-65
2022/04/20 03:03:24;;;;;;;3.17;2.00;;;;;;;10.40;40.99;100054.72;10249120;28;20074;-66
2022/04/20 03:08:26;;;;;;;2.53;2.10;;;;;;;10.27;41.14;100045.06;10239922;28;20051;-66
2022/04/20 03:13:27;;;;;;;4.88;2.28;;;;;;;10.40;41.71;100060.03;10242437;28;20142;-65
2022/04/20 03:18:32;;;;;;;4.03;2.50;;;;;;;10.38;41.65;100064.66;10242224;28;20521;-64
2022/04/20 03:23:34;;;;;;;2.55;2.35;;;;;;;10.23;41.26;100058.75;10240988;28;20809;-64
2022/04/20 03:28:35;;;;;;;6.07;2.40;;;;;;;10.25;41.33;100073.63;10242352;28;20154;-64
2022/04/20 03:33:37;;;;;;;3.22;2.30;;;;;;;10.17;41.49;100070.72;10257150;28;20130;-64
2022/04/20 03:38:38;;;;;;;2.17;1.70;;;;;;;10.13;41.83;100066.59;10247253;28;20050;-64
2022/04/20 03:43:40;;;;;;;5.55;2.42;;;;;;;10.12;42.04;100064.06;10245885;28;20104;-65
2022/04/20 03:48:43;;;;;;;3.92;2.45;;;;;;;10.12;42.45;100056.09;10246363;28;20525;-65
2022/04/20 03:53:45;;;;;;;4.03;2.38;;;;;;;10.08;42.03;100056.34;10251512;28;20101;-64
2022/04/20 03:58:46;;;;;;;3.08;2.35;;;;;;;10.14;41.98;100072.78;10260672;28;20061;-65
2022/04/20 04:03:47;;;;;;;2.90;2.33;;;;;;;10.01;42.20;100070.28;10240632;28;20147;-65
2022/04/20 04:08:49;;;;;;;5.03;2.58;;;;;;;9.94;42.06;100064.63;10237438;28;20062;-64
2022/04/20 04:13:50;;;;;;;3.75;2.30;;;;;;;9.93;42.32;100072.72;10239702;28;20051;-65
2022/04/20 04:18:51;;;;;;;2.78;2.28;;;;;;;9.88;42.60;100081.91;10242011;28;20058;-64
2022/04/20 04:23:53;;;;;;;2.78;2.10;;;;;;;9.79;42.72;100065.84;10239939;28;20133;-64
2022/04/20 04:28:54;;;;;;;2.78;2.22;;;;;;;9.79;42.47;100065.84;10243657;28;20138;-64
2022/04/20 04:33:56;;;;;;;3.20;2.17;;;;;;;9.76;42.44;100072.25;10241508;28;20134;-63
2022/04/20 04:38:57;;;;;;;9.48;2.45;;;;;;;9.67;43.17;100083.63;10260234;28;20118;-63
2022/04/20 04:43:58;;;;;;;5.80;2.17;;;;;;;9.63;43.18;100076.88;10248850;28;20224;-68
2022/04/20 04:49:00;;;;;;;2.53;2.13;;;;;;;9.54;42.76;100063.31;10241473;28;20294;-64
2022/04/20 04:54:01;;;;;;;3.13;2.10;;;;;;;9.57;43.15;100077.34;10231395;28;20130;-64
2022/04/20 04:59:02;;;;;;;3.15;2.03;;;;;;;9.59;43.56;100086.03;10211554;28;20089;-65
2022/04/20 05:04:05;;;;;;;3.30;1.98;;;;;;;9.51;43.05;100081.34;10219854;28;20054;-66
2022/04/20 05:09:06;;;;;;;4.07;1.75;;;;;;;9.44;43.16;100078.28;10217445;28;20055;-66
2022/04/20 05:14:08;;;;;;;6.30;3.38;;;;;;;9.42;43.61;100064.31;10215260;28;20662;-68
2022/04/20 05:19:10;;;;;;;3.90;2.75;;;;;;;9.57;43.25;100087.97;10207728;28;20050;-68
2022/04/20 05:24:11;;;;;;;7.70;4.82;;;;;;;9.57;42.97;100087.97;10223415;28;20980;-67
2022/04/20 05:29:12;;;;;;;11.32;8.95;;;;;;;9.64;42.93;100094.50;10224533;28;20065;-66
2022/04/20 05:34:14;;;;;;;11.95;9.52;;;;;;;9.67;43.16;100095.09;10228422;28;20061;-64
2022/04/20 05:44:36;;;;;;;8.10;5.82;;;;;;;9.67;42.64;100095.09;10216686;28;20161;-65
2022/04/20 05:49:37;;;;;;;6.93;4.30;;;;;;;9.79;41.92;100103.06;10214673;28;20055;-67
2022/04/20 05:54:38;;;;;;;5.28;3.70;;;;;;;9.83;43.07;100086.75;10220589;28;22056;-65
2022/04/20 05:59:40;;;;;;;3.90;2.63;;;;;;;10.00;42.17;100100.53;10216276;28;20054;-65
2022/04/20 06:04:42;;;;;;;4.47;2.78;;;;;;;10.13;41.90;100101.19;10217133;28;20160;-65
2022/04/20 06:09:43;;;;;;;2.55;2.30;;;;;;;10.23;42.34;100086.19;10214593;28;20083;-64
2022/04/20 06:14:51;;;;;;;4.53;1.90;;;;;;;10.35;41.59;100088.84;10214951;28;20055;-64
2022/04/20 06:19:53;;;;;;;4.38;2.50;;;;;;;10.49;42.09;100101.84;10211316;28;20046;-64
2022/04/20 06:24:54;;;;;;;2.58;1.75;;;;;;;10.69;41.83;100107.31;10214346;28;20094;-62
2022/04/20 06:29:56;;;;;;;2.65;2.45;;;;;;;10.90;41.90;100102.88;10208082;28;20071;-64
2022/04/20 06:34:57;;;;;;;2.85;2.50;;;;;;;11.03;41.95;100101.84;10213566;28;20502;-62
2022/04/20 06:39:58;;;;;;;3.47;2.30;;;;;;;11.15;41.72;100092.78;10215441;28;20051;-64
2022/04/20 06:45:00;;;;;;;4.07;2.42;;;;;;;11.33;40.56;100098.38;10215884;28;20057;-64
2022/04/20 06:50:02;;;;;;;3.08;1.98;;;;;;;11.62;40.58;100111.84;10215378;28;20065;-65
2022/04/20 07:00:25;;;;;;;4.90;2.72;;;;;;;11.87;40.27;100101.69;10214534;28;20132;-63
2022/04/20 07:05:27;;;;;;;2.78;2.08;;;;;;;12.07;39.33;100105.28;10220485;28;20051;-65
2022/04/20 07:10:33;;;;;;;3.42;1.90;;;;;;;12.18;38.94;100085.66;10218786;28;20693;-62
2022/04/20 07:15:35;;;;;;;7.75;2.47;;;;;;;12.09;37.43;100091.81;10216991;28;20063;-64
2022/04/20 07:20:36;;;;;;;5.60;2.22;;;;;;;11.98;37.00;100112.28;10219636;28;20445;-62
2022/04/20 07:25:38;;;;;;;3.42;1.80;;;;;;;12.19;36.71;100103.34;10219953;28;20061;-65
2022/04/20 07:30:39;;;;;;;2.58;1.65;;;;;;;12.43;36.04;100083.41;10224939;28;20209;-62
2022/04/20 07:35:44;;;;;;;3.53;1.88;;;;;;;12.64;36.25;100105.50;10226251;28;21442;-62
2022/04/20 07:40:45;;;;;;;5.53;2.15;;;;;;;12.96;35.89;100099.00;10219888;28;20122;-64
2022/04/20 07:45:47;;;;;;;5.43;2.55;;;;;;;13.13;34.19;100097.41;10223085;28;20050;-62
2022/04/20 07:50:49;;;;;;;4.28;1.80;;;;;;;13.21;33.71;100104.72;10223255;28;20453;-62
2022/04/20 07:55:50;;;;;;;4.10;1.77;;;;;;;13.37;34.26;100114.84;10220591;28;20063;-63
2022/04/20 08:00:53;;;;;;;3.33;2.28;;;;;;;13.59;33.73;100121.69;10218316;28;20061;-63
2022/04/20 08:05:56;;;;;;;4.15;2.55;;;;;;;13.81;32.82;100111.59;10220608;28;20635;-63
2022/04/20 08:10:57;;;;;;;3.63;2.05;;;;;;;14.06;32.29;100100.19;10226276;28;20116;-63
2022/04/20 08:15:59;;;;;;;2.63;2.13;;;;;;;14.19;30.68;100107.88;10218642;28;20051;-63
2022/04/20 08:21:00;;;;;;;3.00;2.70;;;;;;;14.26;29.07;100110.75;10218714;28;20098;-66
2022/04/20 08:26:02;;;;;;;3.42;2.17;;;;;;;14.28;30.50;100103.44;10219900;28;20134;-64
2022/04/20 08:31:03;;;;;;;2.97;2.20;;;;;;;14.58;29.96;100104.06;10221372;28;20047;-64
2022/04/20 08:36:05;;;;;;;4.40;2.22;;;;;;;14.64;29.51;100098.97;10216188;28;20050;-66
2022/04/20 08:41:11;;;;;;;2.20;2.00;;;;;;;14.72;29.34;100095.50;10215969;28;21083;-63
2022/04/20 08:46:15;;;;;;;4.15;1.98;;;;;;;15.03;30.22;100092.41;10219970;28;20058;-62
2022/04/20 08:51:17;;;;;;;;;;;;;;;15.45;29.58;100090.84;10221751;28;20520;-64
2022/04/20 09:02:00;;;;;;;2.83;2.05;;;;;;;15.64;28.07;100076.34;10131971;29;20076;-64
2022/04/20 09:07:03;;;;;;;3.23;1.90;;;;;;;15.95;27.57;100076.66;10203490;28;22032;-64
2022/04/20 09:12:14;;;;;;;5.45;1.70;;;;;;;16.14;27.93;100075.56;10222096;28;20060;-64
2022/04/20 09:17:20;;;;;;;2.92;1.83;;;;;;;16.46;27.43;100067.72;10220750;28;20058;-63
2022/04/20 09:22:24;;;;;;;3.05;1.90;;;;;;;16.89;27.22;100073.78;10222812;28;22263;-63
2022/04/20 09:27:27;;;;;;;4.97;1.83;;;;;;;16.91;26.33;100069.91;10218456;28;20049;-63
2022/04/20 09:32:34;;;;;;;3.13;1.90;;;;;;;17.10;26.01;100065.22;10217074;28;20138;-63
2022/04/20 09:37:36;;;;;;;2.88;1.65;;;;;;;17.49;25.84;100064.44;10216608;28;20082;-63
2022/04/20 09:42:57;;;;;;;3.25;2.13;;;;;;;17.58;25.49;100062.53;10218591;28;20047;-63
2022/04/20 09:53:33;;;;;;;1.75;1.40;;;;;;;18.26;24.66;100033.28;10218243;28;21153;-64
2022/04/20 09:58:34;;;;;;;3.78;1.55;;;;;;;18.44;24.72;100030.31;10220843;28;20128;-63
2022/04/20 10:03:36;;;;;;;3.85;1.63;;;;;;;19.02;23.88;100007.22;10215852;28;20121;-63
2022/04/20 10:08:37;;;;;;;2.85;1.70;;;;;;;19.08;23.33;100014.56;10222008;28;20416;-62
2022/04/20 10:13:40;;;;;;;2.00;1.75;;;;;;;19.93;22.22;100022.34;10220477;28;20054;-63
2022/04/20 10:18:46;;;;;;;5.50;2.00;;;;;;;20.86;21.00;100002.66;10218158;28;20065;-63
2022/04/20 10:23:50;;;;;;;4.80;2.70;;;;;;;24.31;17.94;99994.00;10218885;28;20180;-64
2022/04/20 10:29:02;;;;;;;2.85;1.67;;;;;;;27.50;14.93;99991.88;10218130;28;20057;-63
2022/04/20 10:34:05;;;;;;;2.58;1.15;;;;;;;27.73;14.40;99984.66;10218626;28;20131;-63
2022/04/20 10:39:26;;;;;;;;;;;;;;;25.09;15.81;99977.47;10225503;28;20153;-63
2022/04/20 10:44:55;;;;;;;1.58;1.05;;;;;;;23.70;17.50;99976.34;10228935;28;21001;-63
2022/04/20 10:50:16;;;;;;;4.25;1.38;;;;;;;26.52;14.85;99947.00;10253093;28;20129;-63
2022/04/20 10:55:23;;;;;;;2.95;2.13;;;;;;;30.36;12.68;99936.28;10226999;28;20856;-64
2022/04/20 11:00:26;;;;;;;1.48;1.25;;;;;;;32.36;11.09;99928.84;10226104;28;20043;-64
2022/04/20 11:05:27;;;;;;;2.58;1.13;;;;;;;33.30;9.72;99925.59;10223788;28;20050;-64
2022/04/20 11:10:29;;;;;;;;;;;;;;;34.76;9.75;99915.97;10220143;28;20051;-63
2022/04/20 11:21:03;;;;;;;2.45;1.00;;;;;;;34.49;9.89;99916.53;10218260;28;20047;-66
2022/04/20 11:26:10;;;;;;;4.05;1.02;;;;;;;35.41;9.42;99906.34;10221822;28;20053;-64
2022/04/20 11:31:12;;;;;;;1.73;0.77;;;;;;;35.70;9.09;99894.31;10223866;28;20530;-63
2022/04/20 11:36:14;;;;;;;1.35;0.68;;;;;;;35.54;9.53;99891.78;10218280;28;20883;-64
2022/04/20 11:41:18;;;;;;;1.98;0.98;;;;;;;34.85;9.92;99891.28;10221802;28;20057;-63
2022/04/20 11:46:20;;;;;;;2.17;1.10;;;;;;;35.32;8.99;99863.88;10253539;28;20189;-64
2022/04/20 11:51:25;;;;;;;1.40;1.10;;;;;;;36.11;9.05;99871.53;10221118;28;20050;-66
2022/04/20 11:56:33;;;;;;;1.70;1.10;;;;;;;33.66;10.09;99874.94;10223919;28;20065;-64
2022/04/20 12:01:38;;;;;;;1.83;1.27;;;;;;;30.23;12.45;99850.53;10220166;28;20057;-64
2022/04/20 12:06:55;;;;;;;4.03;1.27;;;;;;;28.52;13.91;99860.69;10218442;28;20050;-64
2022/04/20 12:12:03;;;;;;;3.72;1.05;;;;;;;27.45;16.35;99852.38;10222529;28;20138;-64
2022/04/20 12:17:06;;;;;;;2.03;0.80;;;;;;;26.98;15.73;99850.63;10219623;28;20050;-65
2022/04/20 12:22:21;;;;;;;1.35;1.02;;;;;;;26.32;15.86;99844.50;10220162;28;20467;-65
2022/04/20 12:27:24;;;;;;;3.00;1.13;;;;;;;26.23;16.55;99837.75;10218130;28;20097;-64
2022/04/20 12:32:30;;;;;;;2.53;0.90;;;;;;;25.91;16.39;99836.16;10218653;28;20055;-67
2022/04/20 12:37:33;;;;;;;1.30;0.57;;;;;;;24.68;17.46;99825.47;10221395;28;20054;-67
2022/04/20 12:42:35;;;;;;;1.45;0.90;;;;;;;24.94;17.06;99825.38;10247018;28;20503;-66
2022/04/20 12:47:38;;;;;;;2.10;1.10;;;;;;;25.05;16.59;99824.59;10227784;28;20162;-64
2022/04/20 12:52:48;;;;;;;1.85;0.93;;;;;;;24.83;17.49;99807.91;10221834;28;20485;-66
2022/04/20 13:03:16;;;;;;;2.22;1.02;;;;;;;23.97;17.47;99803.09;10220311;28;20258;-65
2022/04/20 13:08:19;;;;;;;1.55;1.30;;;;;;;23.75;17.68;99799.94;10227558;28;20043;-64
2022/04/20 13:13:28;;;;;;;1.77;1.00;;;;;;;23.48;17.83;99793.88;10219416;28;20051;-66
2022/04/20 13:18:29;;;;;;;2.22;1.08;;;;;;;23.35;18.75;99794.78;10215993;28;20578;-65
2022/04/20 13:23:31;;;;;;;2.15;1.23;;;;;;;23.21;19.13;99772.31;10223397;28;20055;-65
2022/04/20 13:28:32;;;;;;;4.80;1.40;;;;;;;23.01;19.27;99766.97;10214429;28;20050;-65
2022/04/20 13:33:35;;;;;;;2.15;1.05;;;;;;;22.79;19.86;99774.59;10213794;28;20051;-65
2022/04/20 13:38:36;;;;;;;3.10;1.23;;;;;;;22.47;19.78;99766.34;10218242;28;20047;-66
2022/04/20 13:43:38;;;;;;;1.73;1.00;;;;;;;22.51;20.13;99775.72;10220598;28;20058;-65
2022/04/20 13:48:41;;;;;;;4.32;1.50;;;;;;;22.32;20.88;99765.78;10213791;28;20429;-66
2022/04/20 13:53:42;;;;;;;1.73;0.73;;;;;;;22.20;20.84;99765.56;10232763;28;20141;-67
2022/04/20 13:58:44;;;;;;;1.75;1.17;;;;;;;21.81;20.90;99757.28;10213875;28;20051;-65
2022/04/20 14:03:45;;;;;;;1.75;1.05;;;;;;;21.70;20.85;99771.44;10207320;28;20050;-66
2022/04/20 14:08:47;;;;;;;3.13;1.55;;;;;;;21.47;21.54;99753.69;10217332;28;20059;-66
2022/04/20 14:13:48;;;;;;;2.70;1.20;;;;;;;21.28;22.54;99774.28;10218940;28;20833;-65
2022/04/20 14:18:50;;;;;;;1.50;1.33;;;;;;;21.13;22.56;99766.34;10221077;28;20531;-65
2022/04/20 14:23:52;;;;;;;7.30;1.73;;;;;;;20.86;23.08;99761.91;10222381;28;20138;-66
2022/04/20 14:34:13;;;;;;;2.67;1.75;;;;;;;20.39;23.14;99754.38;10223262;28;20414;-66
2022/04/20 14:39:14;;;;;;;3.55;1.30;;;;;;;20.22;24.28;99744.94;10221876;28;20137;-66
2022/04/20 14:44:16;;;;;;;3.08;1.52;;;;;;;20.19;24.49;99753.44;10219757;28;20085;-66
2022/04/20 14:49:17;;;;;;;3.13;1.58;;;;;;;20.20;24.78;99755.13;10224104;28;20059;-66
2022/04/20 14:54:19;;;;;;;3.03;1.48;;;;;;;19.82;25.02;99742.81;10224220;28;20057;-64
2022/04/20 14:59:21;;;;;;;2.17;1.33;;;;;;;19.77;25.75;99745.22;10223112;28;20055;-66
2022/04/20 15:04:27;;;;;;;3.70;1.42;;;;;;;19.66;25.55;99745.75;10231377;28;20051;-64
2022/04/20 15:09:29;;;;;;;2.38;1.08;;;;;;;19.64;26.86;99739.75;10224555;28;20500;-65
2022/04/20 15:14:31;;;;;;;1.67;1.40;;;;;;;19.74;27.33;99716.75;10226827;28;20089;-66
2022/04/20 15:19:32;;;;;;;5.93;1.25;;;;;;;19.85;27.00;99731.63;10252612;28;20453;-65
2022/04/20 15:24:34;;;;;;;1.83;1.48;;;;;;;19.86;26.30;99725.19;10224781;28;20698;-64
2022/04/20 15:29:36;;;;;;;1.33;0.82;;;;;;;19.70;26.47;99720.88;10222671;28;20130;-66
2022/04/20 15:34:37;;;;;;;1.55;0.90;;;;;;;19.66;27.20;99727.69;10224019;28;20047;-64
2022/04/20 15:39:39;;;;;;;2.13;1.25;;;;;;;19.63;26.47;99717.28;10227597;28;20046;-64
2022/04/20 15:44:57;;;;;;;2.90;1.02;;;;;;;19.76;26.87;99717.38;10225992;28;20099;-64
2022/04/20 15:49:58;;;;;;;1.92;1.10;;;;;;;19.69;27.00;99724.59;10219584;28;20505;-64
2022/04/20 16:00:22;;;;;;;1.27;1.00;;;;;;;19.77;27.55;99727.19;10223871;28;20055;-65
2022/04/20 16:05:23;;;;;;;3.37;1.00;;;;;;;19.72;27.25;99716.09;10223095;28;20055;-65
2022/04/20 16:10:25;;;;;;;1.60;1.23;;;;;;;18.72;67.96;99732.16;10219887;28;20059;-64
2022/04/20 16:15:27;;;;;;;1.92;0.90;;;;;;;17.06;54.82;99725.06;10240404;28;20054;-65
2022/04/20 16:20:28;;;;;;;3.35;1.70;;;;;;;17.62;43.44;99724.78;10222682;28;20057;-63
2022/04/20 16:25:29;;;;;;;2.70;1.00;;;;;;;18.35;38.30;99719.66;10223199;28;20436;-65
2022/04/20 16:30:32;;;;;;;1.35;1.05;;;;;;;18.60;36.22;99701.34;10221220;28;20065;-65
2022/04/20 16:35:34;;;;;;;2.35;1.30;;;;;;;18.64;34.15;99701.78;10222992;28;20053;-62
2022/04/20 16:40:38;;;;;;;2.58;1.08;;;;;;;18.64;33.40;99688.31;10221037;28;20055;-64
2022/04/20 16:45:40;;;;;;;3.38;1.15;;;;;;;18.67;31.00;99707.59;10223567;28;20861;-64
2022/04/20 16:50:41;;;;;;;3.45;3.25;;;;;;;18.46;30.98;99699.50;10228483;28;20051;-66
2022/04/20 16:55:42;;;;;;;1.15;0.93;;;;;;;18.46;31.54;99716.47;10229811;28;20054;-66
2022/04/20 17:00:44;;;;;;;2.30;1.10;;;;;;;18.41;30.90;99696.53;10227667;28;20049;-64
2022/04/20 17:05:49;;;;;;;2.85;1.08;;;;;;;18.49;31.88;99693.72;10216011;28;20071;-63
2022/04/20 17:10:51;;;;;;;1.42;0.90;;;;;;;18.33;31.55;99668.66;10215260;28;20126;-64
2022/04/20 17:15:52;;;;;;;2.90;1.05;;;;;;;18.38;31.66;99690.47;10219099;28;20244;-64
2022/04/20 17:31:38;;;;;;;3.72;1.73;;;;;;;17.83;34.14;99732.16;10221555;28;20051;-64
2022/04/20 17:36:41;;;;;;;2.47;1.60;;;;;;;17.55;33.77;99719.31;10220719;28;20055;-66
2022/04/20 17:41:44;;;;;;;7.63;1.63;;;;;;;17.32;33.74;99740.84;10218756;28;20061;-64
2022/04/20 17:46:47;;;;;;;3.03;0.88;;;;;;;17.31;35.28;99737.31;10219975;28;20062;-63
2022/04/20 17:51:49;;;;;;;12.63;5.50;;;;;;;17.21;36.14;99731.34;10218552;28;20137;-64
2022/04/20 17:56:52;;;;;;;6.03;3.20;;;;;;;17.09;37.03;99748.91;10220726;28;20146;-65
2022/04/20 18:01:54;;;;;;;2.83;1.35;;;;;;;17.11;36.00;99754.94;10221574;28;20054;-63
2022/04/20 18:06:56;;;;;;;4.53;1.80;;;;;;;16.93;36.31;99748.00;10223518;28;20054;-64
2022/04/20 18:11:59;;;;;;;3.70;2.22;;;;;;;16.95;37.18;99745.97;10221903;28;20135;-64
2022/04/20 18:17:01;;;;;;;4.18;1.73;;;;;;;16.83;37.10;99751.88;10216688;28;20101;-64
2022/04/20 18:22:02;;;;;;;4.30;1.58;;;;;;;16.65;37.18;99755.69;10217197;28;20046;-64
2022/04/20 18:27:04;;;;;;;2.25;1.65;;;;;;;16.48;37.42;99771.00;10219453;28;20472;-65
2022/04/20 18:32:06;;;;;;;2.85;1.77;;;;;;;16.41;40.46;99764.69;10219429;28;20053;-64
2022/04/20 18:37:08;;;;;;;4.90;2.00;;;;;;;16.43;37.02;99781.44;10218069;28;20059;-64
2022/04/20 18:42:10;;;;;;;2.42;2.20;;;;;;;16.24;38.76;99788.03;10214982;28;20059;-64
2022/04/20 18:47:12;;;;;;;3.40;2.30;;;;;;;16.03;39.25;99778.72;10219264;28;20059;-64
2022/04/20 18:52:14;;;;;;;2.30;1.83;;;;;;;15.87;39.05;99794.84;10215426;28;20051;-64
2022/04/20 19:02:36;;;;;;;2.55;1.67;;;;;;;15.73;39.63;99815.09;10224828;28;20077;-64
2022/04/20 19:07:38;;;;;;;3.85;2.45;;;;;;;15.66;38.84;99808.75;10224358;28;20061;-63
2022/04/20 19:12:40;;;;;;;2.33;1.33;;;;;;;15.44;39.49;99805.69;10217897;28;20292;-63
2022/04/20 19:17:41;;;;;;;2.35;1.20;;;;;;;15.46;39.97;99824.28;10226704;28;20069;-63
2022/04/20 19:22:43;;;;;;;3.97;1.67;;;;;;;15.28;39.68;99805.66;10225106;28;20058;-64
2022/04/20 19:27:45;;;;;;;1.90;1.60;;;;;;;15.26;39.95;99821.91;10220551;28;20065;-64
2022/04/20 19:32:47;;;;;;;3.13;1.60;;;;;;;15.15;39.54;99828.44;10220607;28;20062;-64
2022/04/20 19:37:49;;;;;;;3.65;1.75;;;;;;;15.17;41.44;99842.50;10220775;28;20059;-65
2022/04/20 19:42:50;;;;;;;2.75;1.60;;;;;;;15.08;40.16;99846.16;10223154;28;20421;-65
2022/04/20 19:47:51;;;;;;;2.78;1.52;;;;;;;14.97;42.29;99841.13;10244724;28;20272;-65
2022/04/20 19:52:53;;;;;;;3.53;1.50;;;;;;;14.94;40.90;99842.28;10242224;28;20050;-64
2022/04/20 19:57:54;;;;;;;2.15;1.40;;;;;;;14.90;40.81;99856.16;10227387;28;20051;-67
2022/04/20 20:02:55;;;;;;;3.08;1.60;;;;;;;14.75;40.33;99843.34;10236159;28;20060;-64
2022/04/20 20:07:57;;;;;;;2.08;1.60;;;;;;;14.74;41.65;99851.56;10240332;28;20047;-65
2022/04/20 20:13:01;;;;;;;2.67;1.58;;;;;;;14.66;41.13;99855.03;10227949;28;20078;-64
2022/04/20 20:18:02;;;;;;;;;;;;;;;14.42;41.53;99859.22;10222940;28;20303;-65
2022/04/20 20:33:44;;;;;;;3.28;2.47;;;;;;;14.17;42.90;99865.41;10220315;28;20078;-65
2022/04/20 20:38:46;;;;;;;2.10;1.90;;;;;;;14.14;42.20;99859.38;10219507;28;20054;-65
2022/04/20 20:43:48;;;;;;;2.40;2.08;;;;;;;14.11;43.38;99859.72;10218633;28;20065;-64
2022/04/20 20:54:10;;;;;;;3.70;2.85;;;;;;;14.03;43.86;99870.34;10229412;28;20146;-65
2022/04/20 20:59:12;;;;;;;3.58;2.63;;;;;;;14.00;44.38;99870.66;10247618;28;20057;-65
2022/04/20 21:04:13;;;;;;;3.58;3.22;;;;;;;13.99;44.08;99876.16;10232426;28;20047;-65
2022/04/20 21:09:14;;;;;;;3.95;2.65;;;;;;;13.96;44.16;99871.94;10232961;28;20054;-65
2022/04/20 21:14:17;;;;;;;3.15;2.72;;;;;;;13.87;44.50;99883.56;10232864;28;20070;-66
2022/04/20 21:19:18;;;;;;;3.25;2.95;;;;;;;13.83;44.51;99882.22;10230672;28;20126;-65
2022/04/20 21:24:20;;;;;;;4.93;2.65;;;;;;;13.79;44.07;99877.16;10226149;28;20054;-64
2022/04/20 21:29:21;;;;;;;5.68;2.22;;;;;;;13.77;44.33;99881.81;10232764;28;20061;-64
2022/04/20 21:34:23;;;;;;;2.95;2.25;;;;;;;13.76;44.61;99866.75;10229254;28;20074;-66
2022/04/20 21:39:24;;;;;;;3.92;2.35;;;;;;;13.74;45.09;99857.22;10225825;28;20047;-65
2022/04/20 21:44:26;;;;;;;2.85;2.33;;;;;;;13.71;44.44;99866.41;10225706;28;20058;-64
2022/04/20 21:49:28;;;;;;;3.22;2.70;;;;;;;13.56;44.97;99863.41;10233044;28;20086;-65
2022/04/20 21:54:30;;;;;;;2.72;2.50;;;;;;;13.58;45.97;99868.59;10226586;28;20067;-64
2022/04/20 21:59:32;;;;;;;2.70;2.50;;;;;;;13.54;45.01;99872.56;10229021;28;20054;-65
2022/04/20 22:09:56;;;;;;;5.75;2.58;;;;;;;13.40;44.85;99874.78;10237269;28;20541;-65
2022/04/20 22:14:58;;;;;;;4.10;2.72;;;;;;;13.38;45.73;99873.25;10227115;28;20153;-64
2022/04/20 22:19:59;;;;;;;2.88;2.50;;;;;;;13.29;45.06;99866.13;10225787;28;20066;-64
2022/04/20 22:25:01;;;;;;;2.50;2.30;;;;;;;13.22;45.54;99855.19;10226914;28;20063;-66
2022/04/20 22:30:05;;;;;;;3.40;2.25;;;;;;;13.25;45.66;99865.56;10230491;28;20574;-64
2022/04/20 22:35:06;;;;;;;3.03;2.17;;;;;;;13.17;45.79;99857.47;10236052;28;20066;-69
2022/04/20 22:40:08;;;;;;;3.40;2.67;;;;;;;12.98;46.27;99834.38;10236835;28;21248;-65
2022/04/20 22:45:11;;;;;;;3.78;2.65;;;;;;;13.11;46.44;99848.22;10233815;28;20067;-64
2022/04/20 22:50:12;;;;;;;3.00;2.72;;;;;;;13.00;46.69;99843.91;10238939;28;20063;-64
2022/04/20 22:55:14;;;;;;;3.55;3.03;;;;;;;13.04;47.49;99853.28;10237449;28;20591;-64
2022/04/20 23:00:16;;;;;;;3.55;2.65;;;;;;;13.01;46.11;99852.75;10239540;28;20118;-64
2022/04/20 23:05:17;;;;;;;4.88;3.22;;;;;;;12.86;47.78;99834.56;10237576;28;20121;-65
2022/04/20 23:10:19;;;;;;;3.67;2.78;;;;;;;12.91;47.96;99852.84;10236401;28;20356;-65
2022/04/20 23:15:20;;;;;;;4.80;3.30;;;;;;;12.89;48.48;99860.97;10236049;28;20135;-64
2022/04/20 23:20:22;;;;;;;3.47;3.08;;;;;;;12.89;47.98;99844.94;10233724;28;20142;-64
2022/04/20 23:30:43;;;;;;;4.93;2.83;;;;;;;12.70;48.04;99829.88;10238554;28;20128;-63
2022/04/20 23:35:46;;;;;;;3.30;3.00;;;;;;;12.61;47.64;99825.41;10230010;28;20138;-64
2022/04/20 23:40:47;;;;;;;3.63;3.28;;;;;;;12.53;47.87;99835.97;10232471;28;20218;-64
2022/04/20 23:45:50;;;;;;;4.63;3.60;;;;;;;12.53;48.97;99834.13;10234375;28;20070;-66
2022/04/20 23:50:51;;;;;;;4.00;3.38;;;;;;;12.43;48.55;99816.47;10233435;28;20073;-64
2022/04/20 23:55:53;;;;;;;4.55;3.60;;;;;;;12.14;50.32;99814.75;10239911;28;20158;-65
